createdAt,value
2019-02-26T00:00:34.307Z,7.90
2019-02-26T00:03:04.710Z,8.00
2019-02-26T00:05:33.518Z,7.80
2019-02-26T00:08:02.677Z,7.60
2019-02-26T00:10:33.996Z,7.50
2019-02-26T00:13:02.135Z,7.40
2019-02-26T00:15:33.310Z,7.30
2019-02-26T00:18:01.168Z,7.30
2019-02-26T00:20:31.893Z,7.30
2019-02-26T00:23:02.023Z,7.40
2019-02-26T00:25:31.723Z,7.50
2019-02-26T00:28:00.367Z,7.50
2019-02-26T00:30:29.040Z,7.50
2019-02-26T00:32:59.674Z,7.50
2019-02-26T00:35:28.039Z,7.40
2019-02-26T00:37:56.678Z,7.30
2019-02-26T00:40:25.322Z,7.20
2019-02-26T00:42:56.493Z,7.10
2019-02-26T00:45:27.014Z,7.10
2019-02-26T00:47:54.891Z,7.00
2019-02-26T00:50:23.503Z,6.90
2019-02-26T00:52:52.755Z,6.70
2019-02-26T00:55:25.250Z,6.70
2019-02-26T00:57:56.810Z,6.80
2019-02-26T01:00:24.656Z,6.80
2019-02-26T01:02:53.996Z,6.80
2019-02-26T01:05:22.673Z,6.80
2019-02-26T01:07:54.521Z,6.70
2019-02-26T01:10:23.600Z,6.50
2019-02-26T01:12:52.483Z,6.40
2019-02-26T01:15:21.544Z,6.40
2019-02-26T01:17:50.223Z,6.40
2019-02-26T01:20:20.121Z,6.20
2019-02-26T01:22:49.412Z,6.20
2019-02-26T01:25:20.537Z,6.10
2019-02-26T01:27:51.073Z,6.20
2019-02-26T01:30:23.690Z,6.10
2019-02-26T01:32:49.359Z,5.90
2019-02-26T01:35:17.961Z,5.70
2019-02-26T01:37:46.583Z,5.60
2019-02-26T01:40:18.374Z,5.50
2019-02-26T01:42:49.777Z,5.50
2019-02-26T01:45:19.396Z,5.70
2019-02-26T01:47:48.312Z,5.70
2019-02-26T01:50:17.503Z,5.80
2019-02-26T01:52:46.126Z,5.90
2019-02-26T01:55:16.155Z,5.90
2019-02-26T01:57:45.208Z,5.70
2019-02-26T02:00:15.335Z,5.60
2019-02-26T02:02:43.948Z,5.80
2019-02-26T02:05:12.614Z,5.80
2019-02-26T02:07:41.313Z,5.80
2019-02-26T02:10:11.390Z,5.80
2019-02-26T02:12:41.523Z,5.80
2019-02-26T02:15:18.836Z,5.80
2019-02-26T02:17:46.901Z,5.80
2019-02-26T02:20:18.699Z,5.70
2019-02-26T02:22:46.436Z,5.70
2019-02-26T02:25:15.183Z,5.70
2019-02-26T02:27:47.706Z,5.60
2019-02-26T02:30:22.602Z,5.50
2019-02-26T02:32:50.472Z,5.50
2019-02-26T02:35:19.132Z,5.60
2019-02-26T02:37:46.883Z,5.70
2019-02-26T02:40:15.601Z,5.60
2019-02-26T02:42:46.508Z,5.70
2019-02-26T02:45:19.655Z,5.70
2019-02-26T02:47:45.237Z,5.70
2019-02-26T02:50:15.103Z,5.70
2019-02-26T02:52:44.515Z,5.70
2019-02-26T02:55:16.489Z,5.60
2019-02-26T02:57:43.570Z,5.60
2019-02-26T03:00:13.255Z,5.50
2019-02-26T03:02:43.164Z,5.60
2019-02-26T03:05:12.511Z,5.50
2019-02-26T03:07:42.427Z,5.50
2019-02-26T03:10:12.232Z,5.40
2019-02-26T03:12:43.960Z,5.40
2019-02-26T03:15:11.852Z,5.40
2019-02-26T03:17:40.484Z,5.40
2019-02-26T03:20:10.131Z,5.50
2019-02-26T03:22:41.974Z,5.50
2019-02-26T03:25:10.843Z,5.50
2019-02-26T03:27:42.468Z,5.50
2019-02-26T03:30:20.270Z,5.50
2019-02-26T03:32:46.078Z,5.50
2019-02-26T03:35:16.663Z,5.60
2019-02-26T03:37:45.066Z,5.70
2019-02-26T03:40:13.994Z,5.70
2019-02-26T03:42:43.430Z,5.80
2019-02-26T03:45:15.431Z,5.80
2019-02-26T03:47:44.802Z,5.80
2019-02-26T03:50:14.755Z,5.80
2019-02-26T03:52:44.090Z,5.80
2019-02-26T03:55:15.436Z,5.80
2019-02-26T03:57:47.572Z,5.80
2019-02-26T04:00:16.714Z,5.80
2019-02-26T04:02:48.106Z,5.80
2019-02-26T04:05:15.871Z,5.70
2019-02-26T04:07:44.909Z,5.70
2019-02-26T04:10:14.204Z,5.60
2019-02-26T04:12:45.021Z,5.50
2019-02-26T04:15:15.166Z,5.50
2019-02-26T04:17:43.844Z,5.40
2019-02-26T04:20:12.930Z,5.30
2019-02-26T04:22:42.961Z,5.30
2019-02-26T04:25:18.248Z,5.30
2019-02-26T04:28:16.932Z,5.20
2019-02-26T04:31:11.638Z,5.20
2019-02-26T04:34:06.193Z,5.00
2019-02-26T04:37:40.551Z,5.00
2019-02-26T04:40:57.587Z,5.10
2019-02-26T04:43:57.523Z,5.00
2019-02-26T04:46:45.686Z,4.70
2019-02-26T04:49:14.388Z,4.50
2019-02-26T04:51:45.113Z,4.40
2019-02-26T04:54:17.582Z,4.40
2019-02-26T04:56:45.204Z,4.30
2019-02-26T04:59:16.815Z,4.10
2019-02-26T05:01:47.242Z,4.00
2019-02-26T05:04:15.403Z,3.90
2019-02-26T05:06:44.067Z,3.80
2019-02-26T05:09:13.124Z,3.90
2019-02-26T05:11:41.801Z,3.90
2019-02-26T05:14:11.809Z,4.00
2019-02-26T05:16:41.210Z,4.10
2019-02-26T05:19:10.649Z,4.10
2019-02-26T05:21:40.217Z,4.10
2019-02-26T05:24:08.863Z,4.00
2019-02-26T05:26:37.489Z,4.10
2019-02-26T05:29:11.145Z,4.10
2019-02-26T05:31:40.244Z,4.10
2019-02-26T05:34:12.229Z,4.10
2019-02-26T05:36:43.527Z,4.10
2019-02-26T05:39:11.111Z,4.10
2019-02-26T05:41:40.632Z,4.10
2019-02-26T05:44:10.653Z,4.20
2019-02-26T05:46:39.593Z,4.10
2019-02-26T05:49:12.589Z,4.20
2019-02-26T05:51:38.665Z,4.40
2019-02-26T05:54:11.034Z,4.50
2019-02-26T05:56:40.903Z,4.60
2019-02-26T05:59:09.477Z,4.60
2019-02-26T06:01:39.069Z,4.50
2019-02-26T06:04:09.599Z,4.30
2019-02-26T06:06:38.122Z,4.30
2019-02-26T06:09:07.782Z,4.30
2019-02-26T06:11:39.081Z,4.30
2019-02-26T06:14:09.787Z,4.20
2019-02-26T06:16:37.442Z,4.10
2019-02-26T06:19:11.079Z,4.10
2019-02-26T06:21:43.959Z,4.10
2019-02-26T06:24:10.744Z,4.10
2019-02-26T06:26:41.211Z,4.20
2019-02-26T06:29:09.747Z,4.30
2019-02-26T06:31:41.708Z,4.40
2019-02-26T06:34:11.306Z,4.40
2019-02-26T06:36:39.221Z,4.30
2019-02-26T06:39:07.871Z,4.30
2019-02-26T06:41:39.508Z,4.20
2019-02-26T06:44:07.187Z,4.20
2019-02-26T06:46:38.255Z,4.20
2019-02-26T06:49:06.200Z,4.30
2019-02-26T06:51:34.859Z,4.40
2019-02-26T06:54:03.493Z,4.40
2019-02-26T06:56:34.435Z,4.50
2019-02-26T06:59:09.923Z,4.50
2019-02-26T07:01:41.839Z,4.60
2019-02-26T07:04:12.870Z,4.60
2019-02-26T07:06:40.587Z,4.50
2019-02-26T07:09:10.998Z,4.40
2019-02-26T07:11:40.132Z,4.40
2019-02-26T07:14:10.329Z,4.50
2019-02-26T07:16:40.361Z,4.60
2019-02-26T07:19:11.533Z,4.50
2019-02-26T07:21:40.658Z,4.60
2019-02-26T07:24:10.306Z,4.60
2019-02-26T07:26:41.082Z,4.60
2019-02-26T07:29:12.245Z,4.60
2019-02-26T07:31:39.819Z,4.60
2019-02-26T07:34:08.745Z,4.60
2019-02-26T07:36:37.389Z,4.70
2019-02-26T07:39:07.776Z,4.70
2019-02-26T07:41:36.451Z,4.70
2019-02-26T07:44:09.027Z,4.70
2019-02-26T07:46:37.974Z,4.80
2019-02-26T07:49:07.444Z,4.80
2019-02-26T07:51:38.075Z,5.00
2019-02-26T07:54:06.634Z,5.00
2019-02-26T07:56:35.326Z,5.00
2019-02-26T07:59:07.146Z,5.10
2019-02-26T08:01:35.450Z,5.10
2019-02-26T08:04:11.084Z,5.10
2019-02-26T08:06:39.095Z,5.20
2019-02-26T08:09:10.941Z,5.30
2019-02-26T08:11:41.267Z,5.40
2019-02-26T08:14:09.267Z,5.40
2019-02-26T08:16:37.928Z,5.40
2019-02-26T08:19:06.565Z,5.40
2019-02-26T08:21:35.225Z,5.40
2019-02-26T08:24:04.168Z,5.50
2019-02-26T08:26:32.817Z,5.60
2019-02-26T08:29:02.628Z,5.60
2019-02-26T08:31:31.923Z,5.60
2019-02-26T08:34:00.588Z,5.70
2019-02-26T08:36:29.287Z,5.90
2019-02-26T08:38:58.241Z,5.90
2019-02-26T08:41:26.882Z,6.00
2019-02-26T08:43:56.475Z,6.10
2019-02-26T08:46:25.949Z,6.20
2019-02-26T08:48:55.245Z,6.40
2019-02-26T08:51:23.894Z,6.60
2019-02-26T08:53:54.582Z,6.70
2019-02-26T08:56:23.897Z,6.90
2019-02-26T08:58:53.339Z,7.00
2019-02-26T09:01:21.969Z,7.10
2019-02-26T09:03:53.166Z,7.30
2019-02-26T09:06:21.573Z,7.50
2019-02-26T09:08:50.276Z,7.60
2019-02-26T09:11:18.886Z,7.80
2019-02-26T09:13:47.533Z,7.90
2019-02-26T09:16:16.488Z,8.00
2019-02-26T09:18:45.127Z,8.20
2019-02-26T09:21:15.257Z,8.30
2019-02-26T09:23:47.389Z,8.40
2019-02-26T09:26:14.472Z,8.50
2019-02-26T09:28:45.635Z,8.60
2019-02-26T09:31:14.181Z,8.70
2019-02-26T09:33:45.360Z,9.40
2019-02-26T09:36:15.744Z,9.60
2019-02-26T09:38:46.668Z,9.40
2019-02-26T09:41:16.523Z,9.40
2019-02-26T09:43:46.319Z,9.30
2019-02-26T09:46:18.378Z,9.40
2019-02-26T09:48:46.469Z,9.90
2019-02-26T09:51:16.628Z,10.80
2019-02-26T09:53:47.201Z,10.70
2019-02-26T09:56:15.880Z,10.30
2019-02-26T09:58:46.504Z,10.20
2019-02-26T10:01:15.813Z,10.10
2019-02-26T10:03:45.687Z,10.10
2019-02-26T10:06:16.106Z,10.10
2019-02-26T10:08:46.085Z,10.20
2019-02-26T10:11:16.097Z,10.20
2019-02-26T10:13:47.202Z,10.20
2019-02-26T10:16:16.167Z,10.30
2019-02-26T10:18:45.548Z,10.30
2019-02-26T10:21:18.324Z,10.40
2019-02-26T10:23:49.292Z,10.40
2019-02-26T10:26:16.243Z,10.50
2019-02-26T10:28:46.779Z,10.50
2019-02-26T10:31:15.642Z,10.60
2019-02-26T10:33:46.322Z,10.80
2019-02-26T10:36:16.459Z,10.90
2019-02-26T10:38:45.359Z,10.90
2019-02-26T10:41:13.999Z,11.00
2019-02-26T10:43:42.647Z,11.00
2019-02-26T10:46:11.322Z,11.10
2019-02-26T10:48:41.616Z,11.20
2019-02-26T10:51:10.345Z,11.30
2019-02-26T10:53:38.979Z,11.50
2019-02-26T10:56:07.698Z,11.50
2019-02-26T10:58:36.348Z,11.50
2019-02-26T11:01:05.817Z,11.50
2019-02-26T11:03:37.941Z,11.60
2019-02-26T11:06:07.294Z,11.60
2019-02-26T11:08:35.668Z,11.80
2019-02-26T11:11:07.158Z,11.90
2019-02-26T11:13:37.066Z,12.00
2019-02-26T11:16:05.385Z,12.10
2019-02-26T11:18:34.705Z,12.30
2019-02-26T11:21:04.397Z,12.50
2019-02-26T11:23:34.514Z,12.70
2019-02-26T11:26:04.189Z,13.10
2019-02-26T11:28:38.118Z,13.70
2019-02-26T11:31:04.261Z,15.00
2019-02-26T11:33:33.030Z,17.10
2019-02-26T11:36:03.092Z,18.80
2019-02-26T11:38:34.718Z,19.60
2019-02-26T11:41:03.069Z,20.70
2019-02-26T11:43:31.748Z,21.50
2019-02-26T11:46:01.562Z,22.50
2019-02-26T11:48:33.084Z,22.90
2019-02-26T11:51:01.560Z,22.90
2019-02-26T11:53:30.405Z,22.70
2019-02-26T11:56:00.076Z,23.80
2019-02-26T11:58:29.639Z,24.50
2019-02-26T12:01:00.119Z,24.70
2019-02-26T12:03:31.160Z,24.20
2019-02-26T12:06:01.963Z,24.60
2019-02-26T12:08:29.950Z,24.40
2019-02-26T12:11:03.649Z,26.00
2019-02-26T12:13:28.968Z,27.00
2019-02-26T12:15:57.612Z,28.00
2019-02-26T12:18:26.238Z,28.20
2019-02-26T12:20:54.942Z,28.30
2019-02-26T12:23:23.573Z,28.30
2019-02-26T12:25:53.645Z,29.10
2019-02-26T12:28:22.681Z,29.80
2019-02-26T12:30:51.444Z,30.30
2019-02-26T12:33:20.132Z,30.40
2019-02-26T12:35:48.796Z,29.50
2019-02-26T12:38:21.196Z,30.20
2019-02-26T12:40:50.050Z,30.90
2019-02-26T12:43:19.368Z,30.50
2019-02-26T12:45:48.237Z,29.60
2019-02-26T12:48:19.632Z,28.70
2019-02-26T12:50:47.333Z,28.50
2019-02-26T12:53:18.042Z,30.10
2019-02-26T12:55:46.599Z,30.60
2019-02-26T12:58:17.648Z,31.40
2019-02-26T13:00:45.591Z,31.10
2019-02-26T13:03:15.904Z,31.90
2019-02-26T13:05:45.499Z,32.20
2019-02-26T13:08:19.022Z,32.50
2019-02-26T13:10:49.570Z,33.00
2019-02-26T13:13:16.190Z,32.30
2019-02-26T13:15:44.834Z,31.20
2019-02-26T13:18:13.455Z,31.50
2019-02-26T13:20:42.114Z,31.40
2019-02-26T13:23:20.719Z,31.60
2019-02-26T13:25:41.351Z,30.90
2019-02-26T13:28:09.959Z,31.00
2019-02-26T13:30:38.655Z,30.70
2019-02-26T13:33:10.863Z,30.40
2019-02-26T13:35:37.664Z,31.30
2019-02-26T13:38:07.155Z,32.10
2019-02-26T13:40:38.676Z,32.00
2019-02-26T13:43:08.470Z,30.80
2019-02-26T13:45:37.102Z,29.70
2019-02-26T13:48:05.995Z,30.60
2019-02-26T13:50:34.898Z,30.90
2019-02-26T13:53:03.812Z,30.30
2019-02-26T13:55:32.497Z,30.10
2019-02-26T13:58:04.747Z,30.00
2019-02-26T14:00:31.718Z,29.80
2019-02-26T14:03:00.350Z,29.60
2019-02-26T14:05:37.980Z,29.80
2019-02-26T14:08:00.128Z,29.60
2019-02-26T14:10:28.752Z,28.70
2019-02-26T14:12:57.419Z,28.50
2019-02-26T14:15:26.185Z,29.30
2019-02-26T14:17:55.371Z,29.30
2019-02-26T14:20:24.003Z,29.70
2019-02-26T14:22:52.720Z,30.60
2019-02-26T14:25:21.525Z,30.70
2019-02-26T14:27:50.211Z,30.90
2019-02-26T14:30:18.859Z,30.90
2019-02-26T14:32:47.504Z,30.50
2019-02-26T14:35:16.330Z,30.90
2019-02-26T14:37:45.215Z,31.00
2019-02-26T14:40:14.434Z,30.90
2019-02-26T14:42:43.322Z,31.60
2019-02-26T14:45:13.994Z,31.40
2019-02-26T14:47:42.670Z,31.40
2019-02-26T14:50:13.530Z,30.30
2019-02-26T14:52:42.499Z,29.90
2019-02-26T14:55:11.900Z,30.00
2019-02-26T14:57:40.583Z,28.60
2019-02-26T15:00:13.326Z,29.20
2019-02-26T15:02:42.059Z,29.30
2019-02-26T15:05:11.048Z,29.10
2019-02-26T15:07:39.687Z,29.10
2019-02-26T15:10:08.772Z,28.70
2019-02-26T15:12:37.756Z,28.00
2019-02-26T15:15:06.948Z,28.40
2019-02-26T15:17:35.620Z,28.70
2019-02-26T15:20:05.206Z,28.80
2019-02-26T15:22:34.149Z,28.40
2019-02-26T15:25:02.796Z,28.40
2019-02-26T15:27:36.260Z,28.40
2019-02-26T15:30:02.508Z,28.30
2019-02-26T15:32:31.155Z,28.00
2019-02-26T15:34:59.791Z,27.40
2019-02-26T15:37:28.422Z,27.80
2019-02-26T15:39:57.207Z,28.00
2019-02-26T15:42:25.967Z,28.10
2019-02-26T15:44:59.797Z,28.10
2019-02-26T15:47:30.504Z,28.20
2019-02-26T15:49:58.653Z,27.20
2019-02-26T15:52:27.388Z,24.60
2019-02-26T15:54:57.661Z,22.50
2019-02-26T15:57:28.565Z,20.70
2019-02-26T15:59:57.288Z,19.90
2019-02-26T16:02:28.505Z,19.40
2019-02-26T16:04:56.776Z,19.00
2019-02-26T16:07:25.436Z,18.60
2019-02-26T16:09:54.310Z,18.30
2019-02-26T16:12:22.959Z,18.10
2019-02-26T16:14:52.251Z,17.80
2019-02-26T16:17:20.961Z,17.40
2019-02-26T16:19:53.660Z,17.20
2019-02-26T16:22:22.492Z,17.10
2019-02-26T16:24:51.168Z,17.00
2019-02-26T16:27:21.730Z,16.80
2019-02-26T16:29:50.171Z,16.60
2019-02-26T16:32:18.864Z,16.50
2019-02-26T16:34:47.490Z,16.40
2019-02-26T16:37:16.131Z,16.30
2019-02-26T16:39:44.848Z,16.20
2019-02-26T16:42:13.467Z,16.10
2019-02-26T16:44:42.771Z,16.00
2019-02-26T16:47:12.632Z,15.90
2019-02-26T16:49:41.747Z,15.80
2019-02-26T16:52:10.476Z,15.70
2019-02-26T16:54:40.923Z,15.50
2019-02-26T16:57:09.784Z,15.40
2019-02-26T16:59:38.577Z,15.30
2019-02-26T17:02:08.786Z,15.30
2019-02-26T17:04:38.556Z,15.20
2019-02-26T17:07:07.789Z,15.10
2019-02-26T17:09:36.403Z,15.00
2019-02-26T17:12:05.116Z,14.90
2019-02-26T17:14:33.935Z,14.80
2019-02-26T17:17:03.890Z,14.70
2019-02-26T17:19:33.075Z,14.70
2019-02-26T17:22:04.387Z,14.60
2019-02-26T17:24:32.222Z,14.50
2019-02-26T17:27:00.887Z,14.30
2019-02-26T17:29:29.643Z,14.30
2019-02-26T17:31:58.354Z,14.20
2019-02-26T17:34:26.994Z,14.10
2019-02-26T17:36:55.654Z,14.00
2019-02-26T17:39:25.713Z,13.90
2019-02-26T17:41:54.697Z,13.90
2019-02-26T17:44:23.353Z,13.80
2019-02-26T17:46:52.000Z,13.70
2019-02-26T17:49:20.693Z,13.70
2019-02-26T17:51:49.648Z,13.70
2019-02-26T17:54:18.571Z,13.60
2019-02-26T17:56:47.232Z,13.50
2019-02-26T17:59:16.810Z,13.50
2019-02-26T18:01:46.278Z,13.40
2019-02-26T18:04:15.247Z,13.40
2019-02-26T18:06:43.907Z,13.20
2019-02-26T18:09:12.808Z,13.20
2019-02-26T18:11:41.529Z,13.10
2019-02-26T18:14:10.155Z,13.00
2019-02-26T18:16:38.855Z,12.90
2019-02-26T18:19:12.108Z,12.90
2019-02-26T18:21:38.051Z,12.80
2019-02-26T18:24:06.663Z,12.70
2019-02-26T18:26:35.291Z,12.60
2019-02-26T18:29:03.915Z,12.70
2019-02-26T18:31:32.625Z,12.60
2019-02-26T18:34:01.492Z,12.50
2019-02-26T18:36:30.175Z,12.50
2019-02-26T18:38:58.800Z,12.40
2019-02-26T18:41:27.467Z,12.40
2019-02-26T18:44:03.967Z,12.40
2019-02-26T18:46:33.754Z,12.30
2019-02-26T18:49:02.879Z,12.30
2019-02-26T18:51:33.677Z,12.20
2019-02-26T18:54:02.172Z,12.20
2019-02-26T18:56:30.940Z,12.10
2019-02-26T18:58:59.642Z,12.00
2019-02-26T19:01:30.493Z,12.00
2019-02-26T19:03:58.744Z,11.90
2019-02-26T19:06:27.731Z,11.90
2019-02-26T19:08:56.428Z,11.90
2019-02-26T19:11:25.676Z,11.80
2019-02-26T19:13:54.732Z,11.70
2019-02-26T19:16:23.394Z,11.70
2019-02-26T19:18:52.435Z,11.60
2019-02-26T19:21:21.803Z,11.60
2019-02-26T19:23:51.104Z,11.60
2019-02-26T19:26:19.712Z,11.60
2019-02-26T19:28:48.391Z,11.50
2019-02-26T19:31:17.013Z,11.40
2019-02-26T19:33:45.659Z,11.40
2019-02-26T19:36:14.290Z,11.30
2019-02-26T19:38:43.198Z,11.20
2019-02-26T19:41:13.413Z,11.10
2019-02-26T19:43:42.073Z,11.00
2019-02-26T19:46:10.804Z,11.00
2019-02-26T19:48:39.583Z,11.00
2019-02-26T19:51:08.224Z,11.00
2019-02-26T19:53:36.888Z,10.90
2019-02-26T19:56:05.595Z,10.80
2019-02-26T19:58:34.261Z,10.70
2019-02-26T20:01:03.332Z,10.50
2019-02-26T20:03:39.633Z,10.40
2019-02-26T20:06:02.374Z,10.30
2019-02-26T20:08:31.033Z,10.20
2019-02-26T20:10:59.682Z,10.20
2019-02-26T20:13:28.315Z,10.20
2019-02-26T20:15:56.948Z,10.20
2019-02-26T20:18:26.654Z,10.20
2019-02-26T20:20:55.474Z,10.10
2019-02-26T20:23:24.429Z,10.10
2019-02-26T20:25:53.059Z,10.10
2019-02-26T20:28:21.761Z,10.00
2019-02-26T20:30:50.482Z,10.00
2019-02-26T20:33:19.143Z,10.00
2019-02-26T20:35:47.796Z,10.10
2019-02-26T20:38:16.735Z,10.00
2019-02-26T20:40:48.709Z,10.00
2019-02-26T20:43:16.148Z,10.00
2019-02-26T20:45:44.809Z,10.00
2019-02-26T20:48:13.748Z,9.90
2019-02-26T20:50:42.395Z,9.80
2019-02-26T20:53:11.575Z,9.70
2019-02-26T20:55:40.217Z,9.70
2019-02-26T20:58:11.673Z,9.70
2019-02-26T21:00:42.369Z,9.80
2019-02-26T21:03:09.946Z,9.40
2019-02-26T21:05:38.583Z,9.30
2019-02-26T21:08:07.210Z,9.30
2019-02-26T21:10:35.859Z,9.30
2019-02-26T21:13:04.886Z,9.10
2019-02-26T21:15:33.512Z,9.10
2019-02-26T21:18:02.159Z,9.10
2019-02-26T21:20:30.803Z,9.10
2019-02-26T21:22:59.428Z,9.10
2019-02-26T21:25:28.093Z,9.00
2019-02-26T21:28:00.649Z,9.00
2019-02-26T21:30:27.147Z,8.90
2019-02-26T21:32:58.010Z,8.90
2019-02-26T21:35:26.311Z,8.80
2019-02-26T21:37:54.950Z,8.80
2019-02-26T21:40:23.732Z,8.80
2019-02-26T21:42:52.400Z,8.80
2019-02-26T21:45:21.107Z,8.70
2019-02-26T21:47:49.742Z,8.50
2019-02-26T21:50:21.827Z,8.50
2019-02-26T21:53:04.523Z,8.40
2019-02-26T21:55:19.658Z,8.40
2019-02-26T21:57:48.280Z,8.40
2019-02-26T22:00:17.239Z,8.40
2019-02-26T22:02:46.087Z,8.40
2019-02-26T22:05:14.848Z,8.30
2019-02-26T22:07:43.584Z,8.20
2019-02-26T22:10:13.290Z,8.20
2019-02-26T22:12:41.959Z,8.00
2019-02-26T22:15:11.868Z,8.00
2019-02-26T22:17:40.499Z,8.00
2019-02-26T22:20:21.559Z,8.00
2019-02-26T22:22:41.228Z,8.00
2019-02-26T22:25:15.799Z,8.00
2019-02-26T22:27:41.217Z,7.90
2019-02-26T22:30:12.371Z,7.70
2019-02-26T22:32:41.016Z,7.60
2019-02-26T22:35:10.272Z,7.50
2019-02-26T22:37:41.263Z,7.40
2019-02-26T22:40:10.283Z,7.40
2019-02-26T22:42:41.303Z,7.40
2019-02-26T22:45:10.033Z,7.40
2019-02-26T22:47:40.561Z,7.40
2019-02-26T22:50:10.433Z,7.30
2019-02-26T22:52:40.619Z,7.20
2019-02-26T22:55:10.050Z,7.10
2019-02-26T22:57:38.769Z,7.10
2019-02-26T23:00:48.259Z,7.10
2019-02-26T23:03:14.391Z,7.10
2019-02-26T23:05:43.166Z,7.10
2019-02-26T23:08:12.524Z,7.10
2019-02-26T23:10:41.476Z,7.00
2019-02-26T23:13:10.389Z,7.00
2019-02-26T23:15:39.468Z,7.00
2019-02-26T23:18:08.448Z,6.90
2019-02-26T23:20:37.419Z,7.00
2019-02-26T23:23:06.392Z,7.00
2019-02-26T23:25:36.105Z,6.80
2019-02-26T23:28:05.638Z,6.70
2019-02-26T23:30:34.876Z,6.60
2019-02-26T23:33:04.625Z,6.50
2019-02-26T23:35:33.835Z,6.40
2019-02-26T23:38:02.607Z,6.30
2019-02-26T23:40:31.390Z,6.20
2019-02-26T23:43:00.135Z,6.10
2019-02-26T23:45:28.799Z,6.10
2019-02-26T23:47:57.759Z,6.10
2019-02-26T23:50:26.430Z,6.00
2019-02-26T23:52:55.083Z,6.00
2019-02-26T23:55:24.724Z,6.00
2019-02-26T23:57:57.751Z,6.10
